createdAt,value
2023-05-06T00:01:17.949Z,100556.38
2023-05-06T00:04:20.798Z,100551.34
2023-05-06T00:07:23.236Z,100540.44
2023-05-06T00:10:26.165Z,100550.81
2023-05-06T00:13:28.595Z,100550.03
2023-05-06T00:16:31.064Z,100554.69
2023-05-06T00:19:33.603Z,100535.34
2023-05-06T00:22:36.229Z,100535.97
2023-05-06T00:25:38.717Z,100543.78
2023-05-06T00:28:41.402Z,100554.63
2023-05-06T00:31:45.237Z,100563.81
2023-05-06T00:34:48.315Z,100566.25
2023-05-06T00:38:23.356Z,100565.63
2023-05-06T00:41:26.282Z,100557.25
2023-05-06T00:44:29.496Z,100557.47
2023-05-06T00:47:32.007Z,100539.09
2023-05-06T00:50:36.916Z,100551.25
2023-05-06T00:53:40.615Z,100563.25
2023-05-06T00:56:43.467Z,100546.63
2023-05-06T00:59:46.174Z,100560.44
2023-05-06T01:02:49.627Z,100544.84
2023-05-06T01:06:00.086Z,100550.59
2023-05-06T01:09:39.314Z,100556.63
2023-05-06T01:12:56.700Z,100557.25
2023-05-06T01:16:01.590Z,100559.28
2023-05-06T01:19:08.957Z,100560.91
2023-05-06T01:22:12.562Z,100556.69
2023-05-06T01:25:20.255Z,100534.69
2023-05-06T01:28:25.224Z,100536.72
2023-05-06T01:31:32.254Z,100538.69
2023-05-06T01:34:46.404Z,100528.50
2023-05-06T01:38:11.761Z,100538.28
2023-05-06T01:41:19.024Z,100513.50
2023-05-06T01:44:23.507Z,100524.72
2023-05-06T01:47:26.496Z,100513.09
2023-05-06T01:50:30.841Z,100520.31
2023-05-06T01:53:33.382Z,100511.09
2023-05-06T01:56:36.485Z,100518.53
2023-05-06T01:59:39.299Z,100515.31
2023-05-06T02:02:41.982Z,100523.75
2023-05-06T02:05:44.756Z,100512.75
2023-05-06T02:08:47.824Z,100533.16
2023-05-06T02:11:54.747Z,100508.16
2023-05-06T02:14:57.761Z,100525.97
2023-05-06T02:18:00.404Z,100520.16
2023-05-06T02:21:03.343Z,100546.59
2023-05-06T02:24:06.969Z,100526.38
2023-05-06T02:27:09.384Z,100539.38
2023-05-06T02:30:12.140Z,100542.16
2023-05-06T02:33:14.628Z,100524.38
2023-05-06T02:36:17.064Z,100527.56
2023-05-06T02:39:20.342Z,100533.59
2023-05-06T02:42:22.961Z,100526.78
2023-05-06T02:45:25.385Z,100534.16
2023-05-06T02:48:28.626Z,100543.59
2023-05-06T02:51:31.266Z,100541.97
2023-05-06T02:54:34.290Z,100540.78
2023-05-06T02:57:36.815Z,100550.59
2023-05-06T03:00:39.293Z,100539.97
2023-05-06T03:03:42.068Z,100560.00
2023-05-06T03:06:44.576Z,100563.38
2023-05-06T03:09:47.298Z,100556.00
2023-05-06T03:12:50.644Z,100547.16
2023-05-06T03:15:54.296Z,100538.78
2023-05-06T03:18:58.087Z,100525.78
2023-05-06T03:22:00.921Z,100532.16
2023-05-06T03:25:05.331Z,100536.59
2023-05-06T03:28:09.480Z,100523.38
2023-05-06T03:31:15.212Z,100521.75
2023-05-06T03:34:18.178Z,100528.19
2023-05-06T03:37:21.925Z,100523.56
2023-05-06T03:40:29.133Z,100520.38
2023-05-06T03:43:36.145Z,100514.75
2023-05-06T03:46:41.665Z,100515.16
2023-05-06T03:49:45.371Z,100520.56
2023-05-06T03:52:49.111Z,100510.75
2023-05-06T03:55:51.612Z,100535.56
2023-05-06T03:58:54.629Z,100532.78
2023-05-06T04:01:58.766Z,100537.97
2023-05-06T04:05:01.669Z,100544.97
2023-05-06T04:08:04.973Z,100538.78
2023-05-06T04:11:08.240Z,100545.78
2023-05-06T04:14:12.692Z,100551.41
2023-05-06T04:17:15.231Z,100555.19
2023-05-06T04:20:19.122Z,100557.19
2023-05-06T04:23:22.363Z,100557.41
2023-05-06T04:26:25.346Z,100569.59
2023-05-06T04:29:27.937Z,100567.38
2023-05-06T04:32:35.293Z,100564.78
2023-05-06T04:35:40.071Z,100570.75
2023-05-06T04:38:43.526Z,100562.72
2023-05-06T04:41:47.068Z,100562.47
2023-05-06T04:44:54.481Z,100572.16
2023-05-06T04:48:01.809Z,100572.13
2023-05-06T04:51:05.533Z,100556.50
2023-05-06T04:54:09.642Z,100574.81
2023-05-06T04:57:13.137Z,100566.16
2023-05-06T05:00:19.649Z,100573.91
2023-05-06T05:03:22.283Z,100577.44
2023-05-06T05:06:25.039Z,100578.06
2023-05-06T05:09:28.493Z,100582.72
2023-05-06T05:12:31.261Z,100588.81
2023-05-06T05:15:34.826Z,100600.50
2023-05-06T05:18:37.409Z,100595.75
2023-05-06T05:21:48.631Z,100603.31
2023-05-06T05:24:51.653Z,100596.59
2023-05-06T05:27:54.303Z,100579.38
2023-05-06T05:31:03.132Z,100580.91
2023-05-06T05:34:07.984Z,100579.97
2023-05-06T05:37:16.074Z,100593.41
2023-05-06T05:40:19.878Z,100576.50
2023-05-06T05:43:27.047Z,100587.34
2023-05-06T05:46:31.415Z,100593.19
2023-05-06T05:49:34.195Z,100593.50
2023-05-06T05:52:38.139Z,100596.31
2023-05-06T05:55:41.401Z,100594.97
2023-05-06T05:58:44.221Z,100593.41
2023-05-06T06:01:46.902Z,100586.66
2023-05-06T06:04:49.830Z,100582.13
2023-05-06T06:07:52.574Z,100583.28
2023-05-06T06:10:56.275Z,100583.00
2023-05-06T06:14:02.980Z,100588.16
2023-05-06T06:17:05.759Z,100597.84
2023-05-06T06:20:09.126Z,100574.50
2023-05-06T06:23:13.403Z,100587.97
2023-05-06T06:26:16.252Z,100570.09
2023-05-06T06:29:19.031Z,100582.44
2023-05-06T06:32:21.573Z,100580.31
2023-05-06T06:35:24.291Z,100584.34
2023-05-06T06:38:26.773Z,100578.72
2023-05-06T06:41:29.453Z,100578.19
2023-05-06T06:44:33.282Z,100591.28
2023-05-06T06:47:35.844Z,100568.91
2023-05-06T06:50:38.431Z,100568.00
2023-05-06T06:53:41.861Z,100572.22
2023-05-06T06:56:44.466Z,100576.50
2023-05-06T06:59:47.756Z,100569.75
2023-05-06T07:02:50.376Z,100568.41
2023-05-06T07:05:52.904Z,100554.59
2023-05-06T07:08:55.427Z,100578.59
2023-05-06T07:11:58.631Z,100560.25
2023-05-06T07:15:01.301Z,100565.13
2023-05-06T07:18:03.912Z,100578.25
2023-05-06T07:21:06.580Z,100568.69
2023-05-06T07:24:09.372Z,100572.38
2023-05-06T07:27:11.897Z,100576.25
2023-05-06T07:30:14.620Z,100573.22
2023-05-06T07:33:17.373Z,100566.31
2023-05-06T07:36:20.193Z,100566.19
2023-05-06T07:39:22.639Z,100557.06
2023-05-06T07:42:25.288Z,100560.22
2023-05-06T07:45:27.831Z,100561.94
2023-05-06T07:48:30.970Z,100552.00
2023-05-06T07:51:33.659Z,100569.72
2023-05-06T07:54:36.118Z,100564.91
2023-05-06T07:57:38.975Z,100546.47
2023-05-06T08:00:41.415Z,100550.22
2023-05-06T08:03:44.240Z,100567.69
2023-05-06T08:06:47.152Z,100559.88
2023-05-06T08:09:49.657Z,100573.63
2023-05-06T08:12:52.307Z,100562.53
2023-05-06T08:15:55.511Z,100566.53
2023-05-06T08:18:58.535Z,100569.97
2023-05-06T08:22:01.136Z,100582.13
2023-05-06T08:25:03.732Z,100586.41
2023-05-06T08:28:06.481Z,100555.97
2023-05-06T08:31:09.017Z,100574.69
2023-05-06T08:34:11.667Z,100573.06
2023-05-06T08:37:14.210Z,100563.97
2023-05-06T08:40:21.910Z,100566.13
2023-05-06T08:43:27.596Z,100570.28
2023-05-06T08:46:31.544Z,100566.78
2023-05-06T08:49:34.160Z,100565.28
2023-05-06T08:52:38.462Z,100565.25
2023-05-06T08:55:42.492Z,100552.78
2023-05-06T08:58:48.374Z,100563.81
2023-05-06T09:01:52.053Z,100553.41
2023-05-06T09:04:55.695Z,100557.13
2023-05-06T09:07:58.424Z,100557.19
2023-05-06T09:11:01.134Z,100549.19
2023-05-06T09:14:11.145Z,100540.69
2023-05-06T09:17:26.674Z,100549.38
2023-05-06T09:20:32.838Z,100546.06
2023-05-06T09:23:35.590Z,100541.66
2023-05-06T09:26:39.498Z,100534.69
2023-05-06T09:30:00.618Z,100536.09
2023-05-06T09:33:06.015Z,100517.88
2023-05-06T09:36:10.813Z,100529.66
2023-05-06T09:39:13.523Z,100529.06
2023-05-06T09:42:16.706Z,100510.38
2023-05-06T09:45:19.159Z,100521.88
2023-05-06T09:48:22.261Z,100514.22
2023-05-06T09:51:26.455Z,100512.06
2023-05-06T09:54:29.600Z,100516.84
2023-05-06T09:57:33.364Z,100510.66
2023-05-06T10:00:36.658Z,100498.31
2023-05-06T10:03:42.147Z,100493.13
2023-05-06T10:06:49.013Z,100479.53
2023-05-06T10:09:52.682Z,100501.31
2023-05-06T10:12:56.412Z,100491.94
2023-05-06T10:16:00.874Z,100486.94
2023-05-06T10:19:06.701Z,100484.63
2023-05-06T10:22:18.354Z,100487.56
2023-05-06T10:25:35.308Z,100478.16
2023-05-06T10:28:42.819Z,100469.78
2023-05-06T10:31:55.442Z,100474.75
2023-05-06T10:35:05.886Z,100460.22
2023-05-06T10:38:15.270Z,100451.94
2023-05-06T10:41:18.276Z,100449.16
2023-05-06T10:44:56.615Z,100454.09
2023-05-06T10:47:59.114Z,100449.97
2023-05-06T10:51:13.908Z,100450.41
2023-05-06T10:54:23.111Z,100442.28
2023-05-06T10:57:27.404Z,100439.19
2023-05-06T11:00:34.829Z,100444.31
2023-05-06T11:03:37.703Z,100430.31
2023-05-06T11:06:46.774Z,100423.09
2023-05-06T11:10:05.176Z,100432.97
2023-05-06T11:13:25.119Z,100432.38
2023-05-06T11:16:47.386Z,100431.94
2023-05-06T11:19:50.028Z,100432.50
2023-05-06T11:22:53.131Z,100425.50
2023-05-06T11:25:58.773Z,100416.25
2023-05-06T11:29:04.113Z,100423.41
2023-05-06T11:32:23.438Z,100427.28
2023-05-06T11:35:34.156Z,100427.63
2023-05-06T11:38:52.923Z,100434.31
2023-05-06T11:42:07.062Z,100429.50
2023-05-06T11:45:11.570Z,100422.44
2023-05-06T11:48:18.373Z,100433.53
2023-05-06T11:51:23.973Z,100429.25
2023-05-06T11:54:27.157Z,100415.47
2023-05-06T11:57:29.951Z,100432.13
2023-05-06T12:00:32.504Z,100428.81
2023-05-06T12:03:35.530Z,100419.16
2023-05-06T12:06:39.140Z,100420.75
2023-05-06T12:09:48.332Z,100425.81
2023-05-06T12:12:51.167Z,100426.56
2023-05-06T12:15:55.454Z,100426.38
2023-05-06T12:18:58.237Z,100422.88
2023-05-06T12:22:24.687Z,100420.25
2023-05-06T12:25:27.235Z,100417.03
2023-05-06T12:28:31.419Z,100419.91
2023-05-06T12:31:34.532Z,100397.69
2023-05-06T12:34:41.186Z,100414.75
2023-05-06T12:37:43.648Z,100421.63
2023-05-06T12:40:53.564Z,100420.84
2023-05-06T12:43:56.369Z,100412.31
2023-05-06T12:47:18.761Z,100416.94
2023-05-06T12:50:41.847Z,100414.41
2023-05-06T12:53:44.387Z,100412.69
2023-05-06T12:56:46.895Z,100404.94
2023-05-06T12:59:49.795Z,100423.03
2023-05-06T13:02:52.340Z,100423.84
2023-05-06T13:05:55.176Z,100406.16
2023-05-06T13:08:58.093Z,100407.59
2023-05-06T13:12:02.604Z,100417.94
2023-05-06T13:15:05.555Z,100421.44
2023-05-06T13:18:09.042Z,100417.91
2023-05-06T13:21:13.152Z,100388.09
2023-05-06T13:24:17.066Z,100403.38
2023-05-06T13:27:19.536Z,100404.97
2023-05-06T13:30:21.958Z,100420.44
2023-05-06T13:33:24.525Z,100424.81
2023-05-06T13:36:27.383Z,100425.47
2023-05-06T13:39:30.911Z,100412.25
2023-05-06T13:42:33.450Z,100411.34
2023-05-06T13:45:35.926Z,100432.84
2023-05-06T13:48:39.029Z,100427.16
2023-05-06T13:51:41.476Z,100422.22
2023-05-06T13:54:45.010Z,100418.84
2023-05-06T13:57:47.519Z,100420.16
2023-05-06T14:00:50.565Z,100429.91
2023-05-06T14:03:53.013Z,100427.31
2023-05-06T14:06:56.076Z,100439.44
2023-05-06T14:09:58.874Z,100443.13
2023-05-06T14:13:01.524Z,100440.41
2023-05-06T14:16:04.994Z,100452.53
2023-05-06T14:19:07.810Z,100429.81
2023-05-06T14:22:10.914Z,100433.66
2023-05-06T14:25:13.795Z,100441.41
2023-05-06T14:28:16.539Z,100426.28
2023-05-06T14:31:19.057Z,100415.66
2023-05-06T14:34:21.562Z,100435.09
2023-05-06T14:37:24.076Z,100438.53
2023-05-06T14:40:26.752Z,100416.91
2023-05-06T14:43:29.221Z,100388.22
2023-05-06T14:46:31.741Z,100413.41
2023-05-06T14:49:34.297Z,100406.13
2023-05-06T14:52:40.579Z,100393.97
2023-05-06T14:55:43.054Z,100407.53
2023-05-06T14:58:46.168Z,100395.63
2023-05-06T15:01:48.746Z,100390.88
2023-05-06T15:04:52.717Z,100390.88
2023-05-06T15:07:55.189Z,100396.16
2023-05-06T15:10:57.658Z,100394.56
2023-05-06T15:14:00.122Z,100393.47
2023-05-06T15:17:02.776Z,100387.16
2023-05-06T15:20:07.058Z,100388.44
2023-05-06T15:23:09.584Z,100387.34
2023-05-06T15:26:12.139Z,100380.72
2023-05-06T15:29:14.990Z,100359.66
2023-05-06T15:32:17.604Z,100370.53
2023-05-06T15:35:20.125Z,100381.19
2023-05-06T15:38:22.618Z,100378.63
2023-05-06T15:41:32.235Z,100374.50
2023-05-06T15:44:34.809Z,100371.78
2023-05-06T15:47:37.289Z,100376.22
2023-05-06T15:50:39.970Z,100378.13
2023-05-06T15:53:43.179Z,100384.28
2023-05-06T15:56:46.146Z,100384.19
2023-05-06T15:59:48.619Z,100378.50
2023-05-06T16:02:51.193Z,100384.06
2023-05-06T16:05:56.661Z,100390.59
2023-05-06T16:09:00.884Z,100375.53
2023-05-06T16:12:04.118Z,100366.47
2023-05-06T16:15:08.069Z,100376.75
2023-05-06T16:18:11.246Z,100381.47
2023-05-06T16:21:13.831Z,100371.97
2023-05-06T16:24:16.398Z,100372.31
2023-05-06T16:27:18.882Z,100371.44
2023-05-06T16:30:21.889Z,100371.03
2023-05-06T16:33:24.772Z,100365.44
2023-05-06T16:36:28.547Z,100375.66
2023-05-06T16:39:30.994Z,100379.22
2023-05-06T16:42:33.563Z,100376.81
2023-05-06T16:45:36.353Z,100397.03
2023-05-06T16:48:39.407Z,100386.97
2023-05-06T16:51:41.901Z,100390.47
2023-05-06T16:54:44.485Z,100394.72
2023-05-06T16:57:47.052Z,100385.88
2023-05-06T17:00:52.657Z,100376.53
2023-05-06T17:03:55.790Z,100375.78
2023-05-06T17:06:58.551Z,100385.53
2023-05-06T17:10:01.381Z,100391.38
2023-05-06T17:13:05.205Z,100374.50
2023-05-06T17:16:07.889Z,100378.75
2023-05-06T17:19:11.884Z,100376.38
2023-05-06T17:22:14.997Z,100365.75
2023-05-06T17:25:17.537Z,100366.81
2023-05-06T17:28:20.608Z,100362.56
2023-05-06T17:31:23.421Z,100361.19
2023-05-06T17:34:26.094Z,100368.84
2023-05-06T17:37:28.644Z,100363.28
2023-05-06T17:40:31.238Z,100361.38
2023-05-06T17:43:34.231Z,100343.63
2023-05-06T17:46:37.121Z,100346.28
2023-05-06T17:49:39.731Z,100362.88
2023-05-06T17:52:42.540Z,100357.28
2023-05-06T17:55:44.967Z,100359.84
2023-05-06T17:58:47.912Z,100354.53
2023-05-06T18:01:50.436Z,100374.63
2023-05-06T18:04:53.524Z,100360.44
2023-05-06T18:07:56.034Z,100361.75
2023-05-06T18:10:59.099Z,100371.50
2023-05-06T18:14:01.786Z,100377.00
2023-05-06T18:17:04.152Z,100362.97
2023-05-06T18:20:08.035Z,100370.28
2023-05-06T18:23:10.759Z,100368.47
2023-05-06T18:26:18.745Z,100388.50
2023-05-06T18:29:27.836Z,100389.59
2023-05-06T18:32:31.706Z,100394.50
2023-05-06T18:35:34.184Z,100385.50
2023-05-06T18:38:36.638Z,100387.63
2023-05-06T18:41:39.090Z,100400.47
2023-05-06T18:44:44.848Z,100393.38
2023-05-06T18:47:47.350Z,100391.72
2023-05-06T18:50:50.992Z,100395.41
2023-05-06T18:53:53.842Z,100391.66
2023-05-06T18:56:57.779Z,100385.16
2023-05-06T19:00:00.371Z,100384.22
2023-05-06T19:03:02.947Z,100371.97
2023-05-06T19:06:10.637Z,100400.34
2023-05-06T19:09:13.534Z,100389.09
2023-05-06T19:12:16.092Z,100393.59
2023-05-06T19:15:19.248Z,100400.56
2023-05-06T19:18:21.819Z,100405.47
2023-05-06T19:21:24.622Z,100401.91
2023-05-06T19:24:27.308Z,100410.41
2023-05-06T19:27:29.998Z,100427.59
2023-05-06T19:30:34.544Z,100420.44
2023-05-06T19:33:38.307Z,100427.63
2023-05-06T19:36:41.019Z,100434.41
2023-05-06T19:39:43.603Z,100420.94
2023-05-06T19:42:46.885Z,100424.88
2023-05-06T19:45:49.435Z,100432.31
2023-05-06T19:48:51.863Z,100438.66
2023-05-06T19:51:54.325Z,100432.22
2023-05-06T19:54:57.590Z,100432.16
2023-05-06T19:58:00.051Z,100437.78
2023-05-06T20:01:02.683Z,100430.53
2023-05-06T20:04:05.374Z,100446.88
2023-05-06T20:07:07.952Z,100444.63
2023-05-06T20:10:13.579Z,100433.22
2023-05-06T20:13:17.796Z,100460.44
2023-05-06T20:16:20.346Z,100447.63
2023-05-06T20:19:26.275Z,100458.09
2023-05-06T20:22:31.357Z,100458.97
2023-05-06T20:25:36.910Z,100444.63
2023-05-06T20:28:39.364Z,100452.91
2023-05-06T20:31:42.190Z,100448.66
2023-05-06T20:34:44.877Z,100462.19
2023-05-06T20:37:47.317Z,100449.22
2023-05-06T20:40:50.033Z,100435.69
2023-05-06T20:43:57.202Z,100434.66
2023-05-06T20:46:59.789Z,100439.19
2023-05-06T20:50:02.399Z,100439.25
2023-05-06T20:53:05.234Z,100425.03
2023-05-06T20:56:17.650Z,100433.69
2023-05-06T20:59:20.363Z,100406.44
2023-05-06T21:02:23.123Z,100415.72
2023-05-06T21:05:26.042Z,100426.66
2023-05-06T21:08:28.635Z,100413.72
2023-05-06T21:11:31.329Z,100403.88
2023-05-06T21:14:34.423Z,100407.16
2023-05-06T21:17:36.992Z,100412.69
2023-05-06T21:20:39.541Z,100413.78
2023-05-06T21:23:42.029Z,100400.72
2023-05-06T21:26:44.558Z,100383.41
2023-05-06T21:29:47.045Z,100407.34
2023-05-06T21:32:49.769Z,100402.72
2023-05-06T21:35:52.290Z,100391.50
2023-05-06T21:39:08.314Z,100397.75
2023-05-06T21:42:10.916Z,100389.44
2023-05-06T21:45:13.916Z,100407.56
2023-05-06T21:48:16.758Z,100415.41
2023-05-06T21:51:19.352Z,100411.53
2023-05-06T21:54:21.904Z,100396.66
2023-05-06T21:57:24.381Z,100401.59
2023-05-06T22:00:28.207Z,100394.38
2023-05-06T22:03:31.039Z,100403.31
2023-05-06T22:06:33.998Z,100399.44
2023-05-06T22:09:37.006Z,100418.00
2023-05-06T22:12:39.569Z,100420.72
2023-05-06T22:15:42.358Z,100412.19
2023-05-06T22:18:44.895Z,100400.13
2023-05-06T22:21:47.452Z,100420.84
2023-05-06T22:24:49.952Z,100418.94
2023-05-06T22:27:52.489Z,100416.88
2023-05-06T22:30:55.279Z,100413.69
2023-05-06T22:33:58.060Z,100427.88
2023-05-06T22:37:01.172Z,100419.81
2023-05-06T22:40:04.288Z,100438.03
2023-05-06T22:43:06.820Z,100427.91
2023-05-06T22:46:09.594Z,100409.91
2023-05-06T22:49:12.159Z,100429.34
2023-05-06T22:52:15.591Z,100424.66
2023-05-06T22:55:18.341Z,100415.78
2023-05-06T22:58:21.028Z,100415.19
2023-05-06T23:01:25.255Z,100411.25
2023-05-06T23:04:28.008Z,100436.38
2023-05-06T23:07:31.183Z,100423.16
2023-05-06T23:10:33.695Z,100421.25
2023-05-06T23:13:36.597Z,100427.88
2023-05-06T23:16:39.583Z,100427.19
2023-05-06T23:19:43.604Z,100436.03
2023-05-06T23:22:46.747Z,100435.00
2023-05-06T23:25:49.163Z,100429.22
2023-05-06T23:28:52.324Z,100419.00
2023-05-06T23:31:54.811Z,100426.09
2023-05-06T23:34:57.781Z,100424.84
2023-05-06T23:38:00.192Z,100428.50
2023-05-06T23:41:02.725Z,100415.75
2023-05-06T23:44:06.429Z,100410.28
2023-05-06T23:47:09.420Z,100403.03
2023-05-06T23:50:12.272Z,100416.91
2023-05-06T23:53:15.017Z,100420.19
2023-05-06T23:56:17.417Z,100407.69
2023-05-06T23:59:19.799Z,100413.97
